Strabane, Pennsylvania
Current Conditions -  °F | °C
As of 11:15 AM on Sunday 23 Nov 2014 (Local Time) from KAFJ Reporting Station
Clear Clear  
Wind Chill: 61°   Ceiling: Unl
Heat Index: 61°   Visibility: 10mi
Dew Point: 39°   Wind: 6mph
Humidity: 45%   Direction: 200°SSW
Pressure: 30.05"   Gusts: NA
Location:  40.25°N, 80.2°W
Report Text: KAFJ 231615Z 20005KT 10SM CLR 16/04 A3005 RMK AO1
Loading
Personal Weather Stations






























Interactive Weather Map New forecast layout! Learn more

10-Day Weather Forecast

Advertisements
Track Severe Weather on mobile